Serra Negra, Brazil
Current Conditions -  °F | °C
As of 9:00 AM on Saturday 25 Oct 2014 (Local Time) from SBKP Reporting Station
Broken Clouds Broken Clouds  
Wind Chill: 70°   Ceiling: 10000
Heat Index: 70°   Visibility: 6mi
Dew Point: 63°   Wind: 3mph
Humidity: 78%   Direction: NA
Pressure: 30.03"   Gusts: NA
Location:  22.61°S, 46.7°W
Report Text: SBKP 251100Z VRB03KT 9999 FEW015 BKN100 21/17 Q1017
Loading
Personal Weather Stations






























Interactive Weather Map
Tropical Storm Tracking
New forecast layout! Learn more

10-Day Weather Forecast

Advertisements
Track Severe Weather on mobile